sensor_id;sensor_type;location;lat;lon;timestamp;temperature;humidity
45435;DHT22;31183;47.404;8.500;2023-04-01T00:00:52;8.60;96.40
45435;DHT22;31183;47.404;8.500;2023-04-01T00:03:19;8.60;96.40
45435;DHT22;31183;47.404;8.500;2023-04-01T00:05:46;8.60;96.70
45435;DHT22;31183;47.404;8.500;2023-04-01T00:08:13;8.60;96.60
45435;DHT22;31183;47.404;8.500;2023-04-01T00:10:39;8.60;96.40
45435;DHT22;31183;47.404;8.500;2023-04-01T00:13:06;8.60;96.40
45435;DHT22;31183;47.404;8.500;2023-04-01T00:15:33;8.60;96.50
45435;DHT22;31183;47.404;8.500;2023-04-01T00:18:00;8.60;96.40
45435;DHT22;31183;47.404;8.500;2023-04-01T00:20:27;8.60;96.50
45435;DHT22;31183;47.404;8.500;2023-04-01T00:22:54;8.60;96.50
45435;DHT22;31183;47.404;8.500;2023-04-01T00:25:21;8.60;96.40
45435;DHT22;31183;47.404;8.500;2023-04-01T00:27:48;8.60;96.60
45435;DHT22;31183;47.404;8.500;2023-04-01T00:30:15;8.70;96.60
45435;DHT22;31183;47.404;8.500;2023-04-01T00:32:42;8.60;96.50
45435;DHT22;31183;47.404;8.500;2023-04-01T00:35:09;8.60;96.50
45435;DHT22;31183;47.404;8.500;2023-04-01T00:37:36;8.60;96.70
45435;DHT22;31183;47.404;8.500;2023-04-01T00:40:04;8.60;96.40
45435;DHT22;31183;47.404;8.500;2023-04-01T00:42:31;8.60;96.50
45435;DHT22;31183;47.404;8.500;2023-04-01T00:44:58;8.60;96.50
45435;DHT22;31183;47.404;8.500;2023-04-01T00:47:25;8.60;96.20
45435;DHT22;31183;47.404;8.500;2023-04-01T00:49:53;8.60;95.90
45435;DHT22;31183;47.404;8.500;2023-04-01T00:52:21;8.60;96.00
45435;DHT22;31183;47.404;8.500;2023-04-01T00:54:49;8.60;96.10
45435;DHT22;31183;47.404;8.500;2023-04-01T00:59:48;8.60;95.80
45435;DHT22;31183;47.404;8.500;2023-04-01T01:02:16;8.60;95.90
45435;DHT22;31183;47.404;8.500;2023-04-01T01:04:43;8.60;96.10
45435;DHT22;31183;47.404;8.500;2023-04-01T01:10:08;8.50;95.90
45435;DHT22;31183;47.404;8.500;2023-04-01T01:12:39;8.50;96.10
45435;DHT22;31183;47.404;8.500;2023-04-01T01:17:57;8.40;96.30
45435;DHT22;31183;47.404;8.500;2023-04-01T01:25:47;8.30;96.90
45435;DHT22;31183;47.404;8.500;2023-04-01T01:31:19;8.20;97.40
45435;DHT22;31183;47.404;8.500;2023-04-01T01:33:49;8.20;97.40
45435;DHT22;31183;47.404;8.500;2023-04-01T01:36:17;8.20;97.30
45435;DHT22;31183;47.404;8.500;2023-04-01T01:38:45;8.20;97.20
45435;DHT22;31183;47.404;8.500;2023-04-01T01:41:12;8.20;97.30
45435;DHT22;31183;47.404;8.500;2023-04-01T01:43:40;8.20;97.40
45435;DHT22;31183;47.404;8.500;2023-04-01T01:46:10;8.20;97.30
45435;DHT22;31183;47.404;8.500;2023-04-01T01:48:37;8.20;97.30
45435;DHT22;31183;47.404;8.500;2023-04-01T01:51:05;8.20;97.30
45435;DHT22;31183;47.404;8.500;2023-04-01T01:53:31;8.20;97.20
45435;DHT22;31183;47.404;8.500;2023-04-01T01:55:58;8.20;97.00
45435;DHT22;31183;47.404;8.500;2023-04-01T02:00:58;8.20;96.70
45435;DHT22;31183;47.404;8.500;2023-04-01T02:03:25;8.30;96.80
45435;DHT22;31183;47.404;8.500;2023-04-01T02:05:53;8.30;96.90
45435;DHT22;31183;47.404;8.500;2023-04-01T02:08:22;8.30;96.60
45435;DHT22;31183;47.404;8.500;2023-04-01T02:10:55;8.30;96.40
45435;DHT22;31183;47.404;8.500;2023-04-01T02:13:24;8.30;96.40
45435;DHT22;31183;47.404;8.500;2023-04-01T02:15:53;8.30;96.20
45435;DHT22;31183;47.404;8.500;2023-04-01T02:18:21;8.30;96.10
45435;DHT22;31183;47.404;8.500;2023-04-01T02:20:48;8.30;96.10
45435;DHT22;31183;47.404;8.500;2023-04-01T02:23:15;8.30;95.70
45435;DHT22;31183;47.404;8.500;2023-04-01T02:25:42;8.30;95.60
45435;DHT22;31183;47.404;8.500;2023-04-01T02:28:10;8.20;95.70
45435;DHT22;31183;47.404;8.500;2023-04-01T02:30:37;8.20;95.80
45435;DHT22;31183;47.404;8.500;2023-04-01T02:33:05;8.20;95.50
45435;DHT22;31183;47.404;8.500;2023-04-01T02:35:33;8.20;95.50
45435;DHT22;31183;47.404;8.500;2023-04-01T02:38:00;8.20;95.30
45435;DHT22;31183;47.404;8.500;2023-04-01T02:40:27;8.20;95.20
45435;DHT22;31183;47.404;8.500;2023-04-01T02:42:54;8.20;95.30
45435;DHT22;31183;47.404;8.500;2023-04-01T02:45:20;8.20;95.30
45435;DHT22;31183;47.404;8.500;2023-04-01T02:47:47;8.20;95.40
45435;DHT22;31183;47.404;8.500;2023-04-01T02:50:13;8.20;95.50
45435;DHT22;31183;47.404;8.500;2023-04-01T02:52:40;8.20;96.20
45435;DHT22;31183;47.404;8.500;2023-04-01T02:55:06;8.20;96.10
45435;DHT22;31183;47.404;8.500;2023-04-01T02:57:33;8.10;95.90
45435;DHT22;31183;47.404;8.500;2023-04-01T02:59:59;8.10;95.80
45435;DHT22;31183;47.404;8.500;2023-04-01T03:02:26;8.10;96.10
45435;DHT22;31183;47.404;8.500;2023-04-01T03:04:53;8.10;96.10
45435;DHT22;31183;47.404;8.500;2023-04-01T03:07:19;8.10;96.00
45435;DHT22;31183;47.404;8.500;2023-04-01T03:09:46;8.10;95.80
45435;DHT22;31183;47.404;8.500;2023-04-01T03:12:12;8.10;95.60
45435;DHT22;31183;47.404;8.500;2023-04-01T03:14:39;8.10;95.40
45435;DHT22;31183;47.404;8.500;2023-04-01T03:17:06;8.10;95.60
45435;DHT22;31183;47.404;8.500;2023-04-01T03:19:32;8.00;95.60
45435;DHT22;31183;47.404;8.500;2023-04-01T03:21:59;8.00;95.50
45435;DHT22;31183;47.404;8.500;2023-04-01T03:24:25;8.00;95.40
45435;DHT22;31183;47.404;8.500;2023-04-01T03:26:52;8.00;95.60
45435;DHT22;31183;47.404;8.500;2023-04-01T03:29:18;8.00;95.60
45435;DHT22;31183;47.404;8.500;2023-04-01T03:31:45;8.00;95.60
45435;DHT22;31183;47.404;8.500;2023-04-01T03:34:12;8.00;95.60
45435;DHT22;31183;47.404;8.500;2023-04-01T03:36:38;8.00;95.70
45435;DHT22;31183;47.404;8.500;2023-04-01T03:39:05;8.00;95.70
45435;DHT22;31183;47.404;8.500;2023-04-01T03:41:32;8.00;95.80
45435;DHT22;31183;47.404;8.500;2023-04-01T03:43:58;7.90;95.80
45435;DHT22;31183;47.404;8.500;2023-04-01T03:46:25;7.90;95.80
45435;DHT22;31183;47.404;8.500;2023-04-01T03:48:51;7.90;95.70
45435;DHT22;31183;47.404;8.500;2023-04-01T03:51:18;8.00;95.40
45435;DHT22;31183;47.404;8.500;2023-04-01T03:53:44;8.00;95.40
45435;DHT22;31183;47.404;8.500;2023-04-01T03:56:11;8.00;95.40
45435;DHT22;31183;47.404;8.500;2023-04-01T03:58:38;8.00;95.20
45435;DHT22;31183;47.404;8.500;2023-04-01T04:01:18;8.00;95.10
45435;DHT22;31183;47.404;8.500;2023-04-01T04:03:47;8.10;95.00
45435;DHT22;31183;47.404;8.500;2023-04-01T04:06:17;8.10;95.00
45435;DHT22;31183;47.404;8.500;2023-04-01T04:08:43;8.10;95.50
45435;DHT22;31183;47.404;8.500;2023-04-01T04:11:10;8.10;95.80
45435;DHT22;31183;47.404;8.500;2023-04-01T04:13:37;8.10;95.40
45435;DHT22;31183;47.404;8.500;2023-04-01T04:16:04;8.10;95.20
45435;DHT22;31183;47.404;8.500;2023-04-01T04:18:31;8.10;95.00
45435;DHT22;31183;47.404;8.500;2023-04-01T04:20:57;8.10;94.70
45435;DHT22;31183;47.404;8.500;2023-04-01T04:23:24;8.10;94.70
45435;DHT22;31183;47.404;8.500;2023-04-01T04:25:57;8.10;94.90
45435;DHT22;31183;47.404;8.500;2023-04-01T04:28:24;8.10;94.50
45435;DHT22;31183;47.404;8.500;2023-04-01T04:30:50;8.10;94.40
45435;DHT22;31183;47.404;8.500;2023-04-01T04:33:17;8.10;94.30
45435;DHT22;31183;47.404;8.500;2023-04-01T04:35:44;8.10;94.40
45435;DHT22;31183;47.404;8.500;2023-04-01T04:38:10;8.10;95.40
45435;DHT22;31183;47.404;8.500;2023-04-01T04:40:38;8.10;96.10
45435;DHT22;31183;47.404;8.500;2023-04-01T04:43:04;8.00;96.60
45435;DHT22;31183;47.404;8.500;2023-04-01T04:45:31;7.90;96.90
45435;DHT22;31183;47.404;8.500;2023-04-01T04:47:58;7.90;96.60
45435;DHT22;31183;47.404;8.500;2023-04-01T04:50:24;7.80;96.50
45435;DHT22;31183;47.404;8.500;2023-04-01T04:52:51;7.80;96.70
45435;DHT22;31183;47.404;8.500;2023-04-01T04:55:18;7.80;96.70
45435;DHT22;31183;47.404;8.500;2023-04-01T04:57:44;7.70;97.00
45435;DHT22;31183;47.404;8.500;2023-04-01T05:00:11;7.70;96.90
45435;DHT22;31183;47.404;8.500;2023-04-01T05:02:38;7.70;97.10
45435;DHT22;31183;47.404;8.500;2023-04-01T05:05:04;7.70;97.40
45435;DHT22;31183;47.404;8.500;2023-04-01T05:07:32;7.70;97.50
45435;DHT22;31183;47.404;8.500;2023-04-01T05:09:59;7.60;97.50
45435;DHT22;31183;47.404;8.500;2023-04-01T05:12:25;7.60;97.40
45435;DHT22;31183;47.404;8.500;2023-04-01T05:14:52;7.50;97.60
45435;DHT22;31183;47.404;8.500;2023-04-01T05:17:18;7.60;97.40
45435;DHT22;31183;47.404;8.500;2023-04-01T05:19:45;7.50;97.80
45435;DHT22;31183;47.404;8.500;2023-04-01T05:22:11;7.50;98.20
45435;DHT22;31183;47.404;8.500;2023-04-01T05:24:38;7.50;98.30
45435;DHT22;31183;47.404;8.500;2023-04-01T05:27:04;7.50;98.50
45435;DHT22;31183;47.404;8.500;2023-04-01T05:29:31;7.50;98.60
45435;DHT22;31183;47.404;8.500;2023-04-01T05:31:57;7.50;98.40
45435;DHT22;31183;47.404;8.500;2023-04-01T05:34:24;7.50;98.50
45435;DHT22;31183;47.404;8.500;2023-04-01T05:36:50;7.50;98.80
45435;DHT22;31183;47.404;8.500;2023-04-01T05:39:18;7.50;99.40
45435;DHT22;31183;47.404;8.500;2023-04-01T05:41:44;7.50;99.50
45435;DHT22;31183;47.404;8.500;2023-04-01T05:44:11;7.50;99.70
45435;DHT22;31183;47.404;8.500;2023-04-01T05:46:38;7.50;99.80
45435;DHT22;31183;47.404;8.500;2023-04-01T05:49:05;7.50;99.90
45435;DHT22;31183;47.404;8.500;2023-04-01T05:51:31;7.60;99.80
45435;DHT22;31183;47.404;8.500;2023-04-01T05:53:58;7.70;99.40
45435;DHT22;31183;47.404;8.500;2023-04-01T05:56:24;7.70;99.20
45435;DHT22;31183;47.404;8.500;2023-04-01T05:58:52;7.80;99.10
45435;DHT22;31183;47.404;8.500;2023-04-01T06:01:19;7.90;99.20
45435;DHT22;31183;47.404;8.500;2023-04-01T06:03:45;7.90;99.10
45435;DHT22;31183;47.404;8.500;2023-04-01T06:06:22;7.90;99.30
45435;DHT22;31183;47.404;8.500;2023-04-01T06:08:49;7.90;99.30
45435;DHT22;31183;47.404;8.500;2023-04-01T06:11:21;7.90;99.40
45435;DHT22;31183;47.404;8.500;2023-04-01T06:13:53;8.00;99.40
45435;DHT22;31183;47.404;8.500;2023-04-01T06:27:04;8.50;98.10
45435;DHT22;31183;47.404;8.500;2023-04-01T06:32:22;8.50;98.00
45435;DHT22;31183;47.404;8.500;2023-04-01T06:35:07;8.50;98.10
45435;DHT22;31183;47.404;8.500;2023-04-01T06:42:35;9.30;96.00
45435;DHT22;31183;47.404;8.500;2023-04-01T06:48:30;9.60;95.20
45435;DHT22;31183;47.404;8.500;2023-04-01T06:50:39;9.50;95.30
45435;DHT22;31183;47.404;8.500;2023-04-01T06:53:19;9.50;94.80
45435;DHT22;31183;47.404;8.500;2023-04-01T06:55:48;9.50;94.70
45435;DHT22;31183;47.404;8.500;2023-04-01T06:58:20;9.50;94.40
45435;DHT22;31183;47.404;8.500;2023-04-01T07:00:49;9.60;94.40
45435;DHT22;31183;47.404;8.500;2023-04-01T07:05:42;9.80;93.50
45435;DHT22;31183;47.404;8.500;2023-04-01T07:08:11;9.90;93.60
45435;DHT22;31183;47.404;8.500;2023-04-01T07:13:27;9.80;93.80
45435;DHT22;31183;47.404;8.500;2023-04-01T07:15:57;9.70;93.50
45435;DHT22;31183;47.404;8.500;2023-04-01T07:18:29;9.70;93.70
45435;DHT22;31183;47.404;8.500;2023-04-01T07:20:56;9.70;93.80
45435;DHT22;31183;47.404;8.500;2023-04-01T07:23:28;9.60;94.60
45435;DHT22;31183;47.404;8.500;2023-04-01T07:25:58;9.60;94.80
45435;DHT22;31183;47.404;8.500;2023-04-01T07:28:26;9.50;95.60
45435;DHT22;31183;47.404;8.500;2023-04-01T07:36:18;9.50;97.60
45435;DHT22;31183;47.404;8.500;2023-04-01T07:41:32;9.50;97.40
45435;DHT22;31183;47.404;8.500;2023-04-01T07:51:48;9.50;97.90
45435;DHT22;31183;47.404;8.500;2023-04-01T07:54:19;9.50;98.00
45435;DHT22;31183;47.404;8.500;2023-04-01T07:56:55;9.50;98.00
45435;DHT22;31183;47.404;8.500;2023-04-01T08:02:16;9.40;98.20
45435;DHT22;31183;47.404;8.500;2023-04-01T08:05:29;9.40;98.20
45435;DHT22;31183;47.404;8.500;2023-04-01T08:13:24;9.20;98.80
45435;DHT22;31183;47.404;8.500;2023-04-01T08:16:37;9.10;99.10
45435;DHT22;31183;47.404;8.500;2023-04-01T08:18:47;9.10;99.40
45435;DHT22;31183;47.404;8.500;2023-04-01T08:21:21;9.10;99.50
45435;DHT22;31183;47.404;8.500;2023-04-01T08:23:51;9.10;99.80
45435;DHT22;31183;47.404;8.500;2023-04-01T08:28:52;9.10;99.70
45435;DHT22;31183;47.404;8.500;2023-04-01T08:31:37;9.10;99.80
45435;DHT22;31183;47.404;8.500;2023-04-01T08:34:05;9.10;99.80
45435;DHT22;31183;47.404;8.500;2023-04-01T08:36:41;9.10;99.30
45435;DHT22;31183;47.404;8.500;2023-04-01T08:41:41;9.10;99.90
45435;DHT22;31183;47.404;8.500;2023-04-01T08:46:46;9.10;99.90
45435;DHT22;31183;47.404;8.500;2023-04-01T08:49:27;9.10;99.90
45435;DHT22;31183;47.404;8.500;2023-04-01T09:02:55;9.00;99.90
45435;DHT22;31183;47.404;8.500;2023-04-01T09:05:35;9.00;99.90
45435;DHT22;31183;47.404;8.500;2023-04-01T09:08:05;9.00;99.90
45435;DHT22;31183;47.404;8.500;2023-04-01T09:18:38;9.10;99.90
45435;DHT22;31183;47.404;8.500;2023-04-01T09:23:40;9.20;99.90
45435;DHT22;31183;47.404;8.500;2023-04-01T09:39:34;9.50;99.90
45435;DHT22;31183;47.404;8.500;2023-04-01T09:52:02;9.20;99.90
45435;DHT22;31183;47.404;8.500;2023-04-01T09:57:27;9.40;99.40
45435;DHT22;31183;47.404;8.500;2023-04-01T10:00:05;9.50;99.70
45435;DHT22;31183;47.404;8.500;2023-04-01T10:08:23;9.60;98.00
45435;DHT22;31183;47.404;8.500;2023-04-01T10:13:39;9.70;97.90
45435;DHT22;31183;47.404;8.500;2023-04-01T10:16:14;9.60;98.50
45435;DHT22;31183;47.404;8.500;2023-04-01T10:21:38;9.90;98.90
45435;DHT22;31183;47.404;8.500;2023-04-01T10:24:16;10.00;98.50
45435;DHT22;31183;47.404;8.500;2023-04-01T10:35:08;10.60;97.40
45435;DHT22;31183;47.404;8.500;2023-04-01T10:48:43;10.20;97.30
45435;DHT22;31183;47.404;8.500;2023-04-01T10:51:34;10.20;97.00
45435;DHT22;31183;47.404;8.500;2023-04-01T10:54:13;10.30;97.20
45435;DHT22;31183;47.404;8.500;2023-04-01T11:04:25;10.90;95.50
45435;DHT22;31183;47.404;8.500;2023-04-01T11:07:02;11.00;95.50
45435;DHT22;31183;47.404;8.500;2023-04-01T11:14:46;11.10;94.80
45435;DHT22;31183;47.404;8.500;2023-04-01T11:17:27;11.10;94.00
45435;DHT22;31183;47.404;8.500;2023-04-01T11:25:39;10.90;93.50
45435;DHT22;31183;47.404;8.500;2023-04-01T11:28:14;10.60;93.80
45435;DHT22;31183;47.404;8.500;2023-04-01T11:35:55;10.50;95.50
45435;DHT22;31183;47.404;8.500;2023-04-01T11:38:26;10.50;96.40
45435;DHT22;31183;47.404;8.500;2023-04-01T11:40:59;10.50;96.60
45435;DHT22;31183;47.404;8.500;2023-04-01T11:46:19;10.70;95.90
45435;DHT22;31183;47.404;8.500;2023-04-01T11:51:22;10.50;95.40
45435;DHT22;31183;47.404;8.500;2023-04-01T11:56:27;10.60;95.90
45435;DHT22;31183;47.404;8.500;2023-04-01T11:59:20;10.70;95.40
45435;DHT22;31183;47.404;8.500;2023-04-01T12:01:52;10.60;95.30
45435;DHT22;31183;47.404;8.500;2023-04-01T12:07:30;10.50;94.60
45435;DHT22;31183;47.404;8.500;2023-04-01T12:12:38;10.50;95.00
45435;DHT22;31183;47.404;8.500;2023-04-01T12:15:28;10.70;94.60
45435;DHT22;31183;47.404;8.500;2023-04-01T12:18:06;10.90;94.30
45435;DHT22;31183;47.404;8.500;2023-04-01T12:20:40;11.10;94.10
45435;DHT22;31183;47.404;8.500;2023-04-01T12:31:15;10.70;94.70
45435;DHT22;31183;47.404;8.500;2023-04-01T12:36:49;10.30;95.80
45435;DHT22;31183;47.404;8.500;2023-04-01T12:39:32;10.30;95.80
45435;DHT22;31183;47.404;8.500;2023-04-01T12:42:04;10.60;95.50
45435;DHT22;31183;47.404;8.500;2023-04-01T12:44:38;10.80;94.50
45435;DHT22;31183;47.404;8.500;2023-04-01T12:47:12;11.00;94.30
45435;DHT22;31183;47.404;8.500;2023-04-01T12:49:46;11.20;94.50
45435;DHT22;31183;47.404;8.500;2023-04-01T12:55:03;11.40;92.10
45435;DHT22;31183;47.404;8.500;2023-04-01T12:57:44;11.40;92.50
45435;DHT22;31183;47.404;8.500;2023-04-01T13:00:25;11.50;91.90
45435;DHT22;31183;47.404;8.500;2023-04-01T13:03:06;11.40;91.60
45435;DHT22;31183;47.404;8.500;2023-04-01T13:31:40;11.60;90.40
45435;DHT22;31183;47.404;8.500;2023-04-01T13:34:17;11.60;90.20
45435;DHT22;31183;47.404;8.500;2023-04-01T13:41:56;11.40;89.70
45435;DHT22;31183;47.404;8.500;2023-04-01T13:44:36;11.30;88.90
45435;DHT22;31183;47.404;8.500;2023-04-01T13:47:06;11.30;90.20
45435;DHT22;31183;47.404;8.500;2023-04-01T13:49:57;11.40;90.00
45435;DHT22;31183;47.404;8.500;2023-04-01T13:55:04;11.50;90.00
45435;DHT22;31183;47.404;8.500;2023-04-01T13:57:36;11.40;90.40
45435;DHT22;31183;47.404;8.500;2023-04-01T14:02:45;11.50;90.30
45435;DHT22;31183;47.404;8.500;2023-04-01T14:05:29;11.50;90.60
45435;DHT22;31183;47.404;8.500;2023-04-01T14:08:27;11.60;90.10
45435;DHT22;31183;47.404;8.500;2023-04-01T14:11:03;11.50;90.20
45435;DHT22;31183;47.404;8.500;2023-04-01T14:29:43;11.30;92.60
45435;DHT22;31183;47.404;8.500;2023-04-01T14:34:53;10.90;93.70
45435;DHT22;31183;47.404;8.500;2023-04-01T14:42:51;9.70;97.10
45435;DHT22;31183;47.404;8.500;2023-04-01T14:50:43;9.80;99.90
45435;DHT22;31183;47.404;8.500;2023-04-01T14:53:11;10.00;99.90
45435;DHT22;31183;47.404;8.500;2023-04-01T14:58:10;10.10;99.90
45435;DHT22;31183;47.404;8.500;2023-04-01T15:03:30;10.00;99.90
45435;DHT22;31183;47.404;8.500;2023-04-01T15:23:51;10.20;99.90
45435;DHT22;31183;47.404;8.500;2023-04-01T15:26:29;10.30;99.90
45435;DHT22;31183;47.404;8.500;2023-04-01T15:34:19;10.70;99.90
45435;DHT22;31183;47.404;8.500;2023-04-01T15:36:52;10.80;99.90
45435;DHT22;31183;47.404;8.500;2023-04-01T15:39:31;10.80;99.90
45435;DHT22;31183;47.404;8.500;2023-04-01T15:42:23;10.80;99.90
45435;DHT22;31183;47.404;8.500;2023-04-01T15:49:55;10.90;99.90
45435;DHT22;31183;47.404;8.500;2023-04-01T16:00:33;10.70;98.70
45435;DHT22;31183;47.404;8.500;2023-04-01T16:03:09;10.80;99.80
45435;DHT22;31183;47.404;8.500;2023-04-01T16:05:55;10.90;99.20
45435;DHT22;31183;47.404;8.500;2023-04-01T16:10:59;11.00;99.40
45435;DHT22;31183;47.404;8.500;2023-04-01T16:19:08;11.00;99.10
45435;DHT22;31183;47.404;8.500;2023-04-01T16:26:44;10.80;97.50
45435;DHT22;31183;47.404;8.500;2023-04-01T16:34:14;10.80;98.90
45435;DHT22;31183;47.404;8.500;2023-04-01T16:36:45;10.80;98.90
45435;DHT22;31183;47.404;8.500;2023-04-01T16:41:50;10.70;98.30
45435;DHT22;31183;47.404;8.500;2023-04-01T16:47:07;10.50;99.00
45435;DHT22;31183;47.404;8.500;2023-04-01T16:49:42;10.30;98.50
45435;DHT22;31183;47.404;8.500;2023-04-01T16:52:14;10.10;98.60
45435;DHT22;31183;47.404;8.500;2023-04-01T16:57:25;10.10;99.20
45435;DHT22;31183;47.404;8.500;2023-04-01T16:59:55;10.00;99.10
45435;DHT22;31183;47.404;8.500;2023-04-01T17:02:26;10.00;99.20
45435;DHT22;31183;47.404;8.500;2023-04-01T17:04:58;10.00;99.50
45435;DHT22;31183;47.404;8.500;2023-04-01T17:12:33;9.80;99.20
45435;DHT22;31183;47.404;8.500;2023-04-01T17:15:07;9.80;99.70
45435;DHT22;31183;47.404;8.500;2023-04-01T17:17:43;9.80;99.80
45435;DHT22;31183;47.404;8.500;2023-04-01T17:22:55;9.80;99.50
45435;DHT22;31183;47.404;8.500;2023-04-01T17:30:46;9.70;99.50
45435;DHT22;31183;47.404;8.500;2023-04-01T17:33:20;9.80;99.90
45435;DHT22;31183;47.404;8.500;2023-04-01T17:48:58;9.70;99.90
45435;DHT22;31183;47.404;8.500;2023-04-01T17:51:38;9.50;99.90
45435;DHT22;31183;47.404;8.500;2023-04-01T18:10:09;9.40;99.90
45435;DHT22;31183;47.404;8.500;2023-04-01T18:15:16;9.30;99.90
45435;DHT22;31183;47.404;8.500;2023-04-01T18:17:49;9.30;99.90
45435;DHT22;31183;47.404;8.500;2023-04-01T18:20:37;9.20;99.90
45435;DHT22;31183;47.404;8.500;2023-04-01T18:25:33;9.20;99.90
45435;DHT22;31183;47.404;8.500;2023-04-01T18:28:14;9.20;99.90
45435;DHT22;31183;47.404;8.500;2023-04-01T18:30:43;9.10;99.90
45435;DHT22;31183;47.404;8.500;2023-04-01T18:33:29;9.10;99.90
45435;DHT22;31183;47.404;8.500;2023-04-01T18:36:03;9.10;99.90
45435;DHT22;31183;47.404;8.500;2023-04-01T18:38:33;9.10;99.90
45435;DHT22;31183;47.404;8.500;2023-04-01T18:41:14;9.00;99.90
45435;DHT22;31183;47.404;8.500;2023-04-01T18:51:43;9.00;99.90
45435;DHT22;31183;47.404;8.500;2023-04-01T18:54:31;9.00;99.90
45435;DHT22;31183;47.404;8.500;2023-04-01T18:57:00;8.90;99.90
45435;DHT22;31183;47.404;8.500;2023-04-01T18:59:32;8.90;99.90
45435;DHT22;31183;47.404;8.500;2023-04-01T19:04:50;8.90;99.90
45435;DHT22;31183;47.404;8.500;2023-04-01T19:09:54;8.90;99.90
45435;DHT22;31183;47.404;8.500;2023-04-01T19:15:07;8.90;99.90
45435;DHT22;31183;47.404;8.500;2023-04-01T19:34:49;9.00;99.90
45435;DHT22;31183;47.404;8.500;2023-04-01T19:36:45;9.00;99.90
45435;DHT22;31183;47.404;8.500;2023-04-01T19:39:37;9.00;99.90
45435;DHT22;31183;47.404;8.500;2023-04-01T19:44:58;9.10;99.90
45435;DHT22;31183;47.404;8.500;2023-04-01T19:50:09;9.10;99.90
45435;DHT22;31183;47.404;8.500;2023-04-01T19:52:43;9.10;99.90
45435;DHT22;31183;47.404;8.500;2023-04-01T19:55:34;9.00;99.90
45435;DHT22;31183;47.404;8.500;2023-04-01T20:00:36;8.90;99.90
45435;DHT22;31183;47.404;8.500;2023-04-01T20:03:07;8.90;99.90
45435;DHT22;31183;47.404;8.500;2023-04-01T20:05:51;8.90;99.90
45435;DHT22;31183;47.404;8.500;2023-04-01T20:08:26;8.80;99.90
45435;DHT22;31183;47.404;8.500;2023-04-01T20:11:00;8.80;99.90
45435;DHT22;31183;47.404;8.500;2023-04-01T20:16:03;8.80;99.90
45435;DHT22;31183;47.404;8.500;2023-04-01T20:26:44;8.70;99.90
45435;DHT22;31183;47.404;8.500;2023-04-01T20:32:33;8.60;99.90
45435;DHT22;31183;47.404;8.500;2023-04-01T20:34:43;8.60;99.90
45435;DHT22;31183;47.404;8.500;2023-04-01T20:37:32;8.60;99.90
45435;DHT22;31183;47.404;8.500;2023-04-01T20:53:16;8.50;99.90
45435;DHT22;31183;47.404;8.500;2023-04-01T21:01:13;8.50;99.90
45435;DHT22;31183;47.404;8.500;2023-04-01T21:03:45;8.50;99.90
45435;DHT22;31183;47.404;8.500;2023-04-01T21:06:20;8.50;99.90
45435;DHT22;31183;47.404;8.500;2023-04-01T21:09:00;8.50;99.90
45435;DHT22;31183;47.404;8.500;2023-04-01T21:19:11;8.40;99.90
45435;DHT22;31183;47.404;8.500;2023-04-01T21:24:32;8.40;99.90
45435;DHT22;31183;47.404;8.500;2023-04-01T21:27:20;8.30;99.90
45435;DHT22;31183;47.404;8.500;2023-04-01T21:29:53;8.30;99.90
45435;DHT22;31183;47.404;8.500;2023-04-01T21:40:15;8.30;99.80
45435;DHT22;31183;47.404;8.500;2023-04-01T21:43:00;8.30;99.80
45435;DHT22;31183;47.404;8.500;2023-04-01T21:50:32;8.30;99.80
45435;DHT22;31183;47.404;8.500;2023-04-01T22:03:55;8.40;99.90
45435;DHT22;31183;47.404;8.500;2023-04-01T22:06:25;8.50;99.90
45435;DHT22;31183;47.404;8.500;2023-04-01T22:09:03;8.50;99.90
45435;DHT22;31183;47.404;8.500;2023-04-01T22:14:21;8.50;99.60
45435;DHT22;31183;47.404;8.500;2023-04-01T22:16:59;8.60;98.90
45435;DHT22;31183;47.404;8.500;2023-04-01T22:19:52;8.60;98.20
45435;DHT22;31183;47.404;8.500;2023-04-01T22:22:22;8.60;99.10
45435;DHT22;31183;47.404;8.500;2023-04-01T22:30:04;8.60;98.30
45435;DHT22;31183;47.404;8.500;2023-04-01T22:43:03;8.60;98.50
45435;DHT22;31183;47.404;8.500;2023-04-01T22:50:56;8.60;98.10
45435;DHT22;31183;47.404;8.500;2023-04-01T22:56:07;8.70;98.60
45435;DHT22;31183;47.404;8.500;2023-04-01T22:58:38;8.70;98.40
45435;DHT22;31183;47.404;8.500;2023-04-01T23:01:06;8.60;98.40
45435;DHT22;31183;47.404;8.500;2023-04-01T23:03:38;8.60;98.30
45435;DHT22;31183;47.404;8.500;2023-04-01T23:06:06;8.60;98.20
45435;DHT22;31183;47.404;8.500;2023-04-01T23:08:58;8.50;98.50
45435;DHT22;31183;47.404;8.500;2023-04-01T23:11:28;8.50;98.40
45435;DHT22;31183;47.404;8.500;2023-04-01T23:16:24;8.40;98.50
45435;DHT22;31183;47.404;8.500;2023-04-01T23:18:54;8.30;98.50
45435;DHT22;31183;47.404;8.500;2023-04-01T23:21:35;8.30;98.90
45435;DHT22;31183;47.404;8.500;2023-04-01T23:27:12;8.20;98.90
45435;DHT22;31183;47.404;8.500;2023-04-01T23:29:42;8.20;99.20
45435;DHT22;31183;47.404;8.500;2023-04-01T23:32:15;8.10;99.20
45435;DHT22;31183;47.404;8.500;2023-04-01T23:34:49;8.20;99.70
45435;DHT22;31183;47.404;8.500;2023-04-01T23:37:17;8.20;99.50
45435;DHT22;31183;47.404;8.500;2023-04-01T23:39:46;8.20;99.70
45435;DHT22;31183;47.404;8.500;2023-04-01T23:44:46;8.20;99.50
45435;DHT22;31183;47.404;8.500;2023-04-01T23:47:21;8.20;99.60
45435;DHT22;31183;47.404;8.500;2023-04-01T23:49:50;8.20;99.70
45435;DHT22;31183;47.404;8.500;2023-04-01T23:52:25;8.20;99.70
45435;DHT22;31183;47.404;8.500;2023-04-01T23:54:53;8.20;99.90
45435;DHT22;31183;47.404;8.500;2023-04-01T23:57:22;8.20;99.80
